Time;durP1;ratioP1;P1;durP2;ratioP2;P2;SDS_P1;SDS_P2;PMS_P1;PMS_P2;Temp;Humidity;BMP_temperature;BMP_pressure;BME280_temperature;BME280_humidity;BME280_pressure;Samples;Min_cycle;Max_cycle;Signal;HPM_P1;HPM_P2
2022/03/22 00:01:21;;;;;;;42.47;26.48;;;5.30;99.90;;;;;;6242736;23;20023;-79
2022/03/22 00:03:48;;;;;;;41.90;26.88;;;5.10;99.90;;;;;;6243519;23;20008;-79
2022/03/22 00:06:13;;;;;;;44.05;28.15;;;5.20;99.90;;;;;;6243378;23;20020;-79
2022/03/22 00:08:41;;;;;;;45.45;28.27;;;5.20;99.90;;;;;;6243115;23;20016;-79
2022/03/22 00:11:07;;;;;;;38.80;25.00;;;5.20;99.90;;;;;;6243190;23;20508;-79
2022/03/22 00:13:33;;;;;;;37.17;24.80;;;5.10;99.90;;;;;;6243691;23;20016;-79
2022/03/22 00:15:59;;;;;;;38.47;24.10;;;5.00;99.90;;;;;;6243443;23;20334;-79
2022/03/22 00:18:25;;;;;;;38.92;24.42;;;5.00;99.90;;;;;;6243007;23;20016;-79
2022/03/22 00:20:50;;;;;;;41.15;25.65;;;5.00;99.90;;;;;;6243602;23;20523;-79
2022/03/22 00:23:19;;;;;;;41.60;25.35;;;5.00;99.90;;;;;;6243583;23;20012;-80
2022/03/22 00:25:45;;;;;;;37.53;24.65;;;4.90;99.90;;;;;;6243701;23;20004;-79
2022/03/22 00:28:13;;;;;;;42.58;26.80;;;5.00;99.90;;;;;;6243116;23;20430;-79
2022/03/22 00:30:39;;;;;;;45.20;28.75;;;4.90;99.90;;;;;;6243282;23;20019;-79
2022/03/22 00:33:07;;;;;;;45.47;29.52;;;5.00;99.90;;;;;;6243020;23;20034;-80
2022/03/22 00:35:37;;;;;;;48.05;29.88;;;5.00;99.90;;;;;;6243491;23;20103;-78
2022/03/22 00:38:06;;;;;;;45.67;28.75;;;5.00;99.90;;;;;;6243675;23;20016;-78
2022/03/22 00:40:32;;;;;;;53.67;30.52;;;5.00;99.90;;;;;;6243624;23;20461;-79
2022/03/22 00:42:58;;;;;;;49.90;30.95;;;5.10;99.90;;;;;;6243708;23;20012;-79
2022/03/22 00:45:31;;;;;;;47.20;31.08;;;5.10;99.90;;;;;;6243594;23;20088;-80
2022/03/22 00:47:59;;;;;;;45.97;30.38;;;5.10;99.90;;;;;;6242626;23;20016;-78
2022/03/22 00:50:33;;;;;;;50.05;31.02;;;5.20;99.90;;;;;;6243199;23;20035;-79
2022/03/22 00:53:00;;;;;;;47.92;29.88;;;5.20;99.90;;;;;;6242966;23;20445;-79
2022/03/22 00:55:27;;;;;;;49.28;31.85;;;5.50;99.90;;;;;;6243310;23;20100;-79
2022/03/22 00:57:54;;;;;;;53.83;31.52;;;5.30;99.90;;;;;;6243344;23;20012;-79
2022/03/22 01:00:24;;;;;;;53.50;31.15;;;5.30;99.90;;;;;;6243064;23;20111;-79
2022/03/22 01:02:51;;;;;;;50.50;31.88;;;5.30;99.90;;;;;;6243336;23;20341;-79
2022/03/22 01:05:23;;;;;;;53.25;32.00;;;5.40;99.90;;;;;;6242954;23;20016;-78
2022/03/22 01:07:51;;;;;;;47.83;31.30;;;5.40;99.90;;;;;;6243072;23;20322;-79
2022/03/22 01:10:20;;;;;;;47.80;31.10;;;5.40;99.90;;;;;;6243009;23;20376;-79
2022/03/22 01:12:47;;;;;;;46.20;31.15;;;5.40;99.90;;;;;;6243125;23;20019;-79
2022/03/22 01:15:16;;;;;;;51.83;31.70;;;5.40;99.90;;;;;;6243125;23;20024;-79
2022/03/22 01:17:47;;;;;;;45.13;30.27;;;5.40;99.90;;;;;;6242511;23;20022;-78
2022/03/22 01:20:14;;;;;;;46.50;30.17;;;5.40;99.90;;;;;;6242860;23;20078;-78
2022/03/22 01:22:42;;;;;;;52.17;31.35;;;5.40;99.90;;;;;;6215976;23;20027;-79
2022/03/22 01:25:14;;;;;;;48.63;31.80;;;5.40;99.90;;;;;;6215759;23;20503;-79
2022/03/22 01:27:42;;;;;;;49.22;30.95;;;5.40;99.90;;;;;;6242965;23;20019;-80
2022/03/22 01:30:10;;;;;;;55.67;31.80;;;5.50;99.90;;;;;;6242480;23;20459;-79
2022/03/22 01:32:35;;;;;;;50.80;33.20;;;5.40;99.90;;;;;;6242898;23;20023;-79
2022/03/22 01:35:03;;;;;;;47.63;32.58;;;5.40;99.90;;;;;;6241966;23;20034;-79
2022/03/22 01:37:29;;;;;;;49.13;31.98;;;5.40;99.90;;;;;;6242670;23;20015;-79
2022/03/22 01:39:55;;;;;;;47.45;31.88;;;5.40;99.90;;;;;;6190801;23;20681;-80
2022/03/22 01:42:21;;;;;;;48.25;31.05;;;5.50;99.90;;;;;;6242634;23;20020;-79
2022/03/22 01:44:48;;;;;;;45.80;30.05;;;5.40;99.90;;;;;;6242646;23;20020;-79
2022/03/22 01:47:17;;;;;;;54.33;32.10;;;5.40;99.90;;;;;;6242206;23;20016;-79
2022/03/22 01:49:43;;;;;;;49.60;32.50;;;5.40;99.90;;;;;;6242585;23;20028;-79
2022/03/22 01:52:14;;;;;;;49.22;31.90;;;5.40;99.90;;;;;;6242158;23;20326;-79
2022/03/22 01:54:40;;;;;;;52.60;33.55;;;5.40;99.90;;;;;;6242019;23;20016;-78
2022/03/22 01:57:07;;;;;;;50.85;32.60;;;5.50;99.90;;;;;;6242516;23;20012;-79
2022/03/22 01:59:33;;;;;;;50.55;32.53;;;5.50;99.90;;;;;;6242685;23;20070;-79
2022/03/22 02:07:37;;;;;;;55.10;34.53;;;5.50;99.90;;;;;;6242126;23;20422;-79
2022/03/22 02:10:04;;;;;;;55.13;34.25;;;5.50;99.90;;;;;;6242626;23;20016;-79
2022/03/22 02:12:30;;;;;;;55.40;32.40;;;5.60;99.90;;;;;;6242444;23;20334;-79
2022/03/22 02:14:55;;;;;;;57.03;36.55;;;5.60;99.90;;;;;;6242401;23;20015;-80
2022/03/22 02:17:21;;;;;;;51.40;33.38;;;5.60;99.90;;;;;;6215285;23;20028;-79
2022/03/22 02:19:48;;;;;;;50.03;31.63;;;5.60;99.90;;;;;;6242414;23;20008;-80
2022/03/22 02:22:17;;;;;;;52.05;35.28;;;5.60;99.90;;;;;;6241730;23;20130;-79
2022/03/22 02:24:43;;;;;;;51.83;33.00;;;5.70;99.90;;;;;;6242484;23;20019;-79
2022/03/22 02:27:09;;;;;;;53.70;32.80;;;5.70;99.90;;;;;;6242136;23;20012;-79
2022/03/22 02:29:36;;;;;;;51.33;33.13;;;5.70;99.90;;;;;;6242381;23;20381;-79
2022/03/22 02:32:07;;;;;;;53.17;33.92;;;5.70;99.90;;;;;;6242340;23;20111;-78
2022/03/22 02:34:37;;;;;;;52.65;33.45;;;5.70;99.90;;;;;;6242490;23;20020;-80
2022/03/22 02:37:04;;;;;;;51.00;32.33;;;5.80;99.90;;;;;;6241862;23;20158;-79
2022/03/22 02:39:31;;;;;;;54.65;33.63;;;5.70;99.90;;;;;;6241605;23;20019;-79
2022/03/22 02:41:57;;;;;;;52.75;33.72;;;5.70;99.90;;;;;;6242015;23;20055;-80
2022/03/22 02:44:23;;;;;;;48.78;31.80;;;5.70;99.90;;;;;;6215061;23;20081;-79
2022/03/22 02:46:49;;;;;;;51.10;32.20;;;5.70;99.90;;;;;;6241893;23;20395;-79
2022/03/22 02:49:14;;;;;;;50.92;33.45;;;5.80;99.90;;;;;;6241903;23;20024;-79
2022/03/22 02:51:41;;;;;;;51.42;33.45;;;5.80;99.90;;;;;;6242207;23;20012;-80
2022/03/22 02:54:07;;;;;;;57.53;33.70;;;5.80;99.90;;;;;;6241177;23;20030;-79
2022/03/22 02:56:33;;;;;;;55.67;32.28;;;5.80;99.90;;;;;;6241682;23;20464;-79
2022/03/22 02:59:02;;;;;;;53.40;33.97;;;5.80;99.90;;;;;;6242168;23;20016;-79
2022/03/22 03:01:28;;;;;;;51.72;33.33;;;5.70;99.90;;;;;;6241386;23;20016;-79
2022/03/22 03:03:55;;;;;;;55.28;32.80;;;5.70;99.90;;;;;;6242348;23;20019;-80
2022/03/22 03:06:20;;;;;;;48.97;30.88;;;5.70;99.90;;;;;;6242200;23;20111;-79
2022/03/22 03:08:46;;;;;;;54.10;34.17;;;5.70;99.90;;;;;;6241656;23;20020;-79
2022/03/22 03:11:12;;;;;;;50.10;31.92;;;5.60;99.90;;;;;;6241343;23;20463;-79
2022/03/22 03:16:23;;;;;;;51.30;32.38;;;5.60;99.90;;;;;;6242006;23;20024;-78
2022/03/22 03:18:51;;;;;;;51.90;33.45;;;5.60;99.90;;;;;;6241802;23;20058;-79
2022/03/22 03:21:18;;;;;;;51.50;32.78;;;5.50;99.90;;;;;;6214080;23;20020;-79
2022/03/22 03:23:43;;;;;;;53.58;33.85;;;5.50;99.90;;;;;;6241860;23;20020;-79
2022/03/22 03:26:09;;;;;;;54.10;33.25;;;5.60;99.90;;;;;;6241313;23;20020;-79
2022/03/22 03:28:35;;;;;;;50.63;34.08;;;5.50;99.90;;;;;;6214960;23;20091;-79
2022/03/22 03:31:00;;;;;;;50.75;33.45;;;5.60;99.90;;;;;;6242267;23;20020;-79
2022/03/22 03:33:26;;;;;;;50.65;32.28;;;5.60;99.90;;;;;;6242854;23;20103;-79
2022/03/22 03:35:52;;;;;;;54.10;33.67;;;5.60;99.90;;;;;;6243854;23;20086;-79
2022/03/22 03:38:17;;;;;;;50.45;32.17;;;5.60;99.90;;;;;;6216775;23;20019;-79
2022/03/22 03:43:28;;;;;;;50.78;32.05;;;5.50;99.90;;;;;;6244053;23;20099;-79
2022/03/22 03:48:37;;;;;;;48.47;32.05;;;5.50;99.90;;;;;;6243557;23;20082;-80
2022/03/22 03:51:03;;;;;;;47.90;31.08;;;5.50;99.90;;;;;;6244043;23;20012;-78
2022/03/22 03:53:29;;;;;;;49.40;30.80;;;5.50;99.90;;;;;;6243989;23;20016;-79
2022/03/22 03:55:55;;;;;;;55.72;33.78;;;5.70;99.90;;;;;;6243432;23;20012;-79
2022/03/22 03:58:20;;;;;;;57.22;33.42;;;5.50;99.90;;;;;;6243985;23;20023;-79
2022/03/22 04:00:46;;;;;;;52.20;33.47;;;5.50;99.90;;;;;;6243728;23;20750;-78
2022/03/22 04:03:12;;;;;;;50.55;33.17;;;5.60;99.90;;;;;;6231829;23;20020;-79
2022/03/22 04:05:38;;;;;;;49.22;33.88;;;5.60;99.90;;;;;;6243865;23;20460;-79
2022/03/22 04:08:04;;;;;;;55.40;33.90;;;5.60;99.90;;;;;;6244098;23;20012;-78
2022/03/22 04:10:30;;;;;;;51.75;32.03;;;5.60;99.90;;;;;;6243401;23;20135;-79
2022/03/22 04:12:56;;;;;;;53.72;33.65;;;5.60;99.90;;;;;;6243195;23;20356;-79
2022/03/22 04:15:23;;;;;;;52.25;32.95;;;5.60;99.90;;;;;;6243771;23;20023;-79
2022/03/22 04:17:50;;;;;;;48.95;32.05;;;5.60;99.90;;;;;;6243370;23;20040;-79
2022/03/22 04:20:17;;;;;;;49.40;33.20;;;5.60;99.90;;;;;;6243543;23;20086;-79
2022/03/22 04:22:43;;;;;;;50.90;32.00;;;5.60;99.90;;;;;;6243713;23;20008;-79
2022/03/22 04:25:09;;;;;;;53.85;33.15;;;5.60;99.90;;;;;;6243425;23;20019;-79
2022/03/22 04:33:04;;;;;;;55.17;33.80;;;5.60;99.90;;;;;;6243485;23;20251;-79
2022/03/22 04:35:30;;;;;;;52.55;33.30;;;5.60;99.90;;;;;;6243497;23;20740;-79
2022/03/22 04:37:56;;;;;;;53.50;33.25;;;5.60;99.90;;;;;;6243470;23;20016;-79
2022/03/22 04:40:22;;;;;;;50.22;32.47;;;5.60;99.90;;;;;;6243340;23;20035;-78
2022/03/22 04:42:48;;;;;;;49.00;31.63;;;5.60;99.90;;;;;;6215773;23;20020;-79
2022/03/22 04:45:14;;;;;;;49.53;32.35;;;5.50;99.90;;;;;;6242692;23;20020;-79
2022/03/22 04:47:40;;;;;;;46.95;31.23;;;5.40;99.90;;;;;;6242520;23;20018;-80
2022/03/22 04:50:07;;;;;;;49.30;32.00;;;5.30;99.90;;;;;;6243390;23;20063;-78
2022/03/22 04:58:03;;;;;;;51.08;31.77;;;5.10;99.90;;;;;;6242861;23;20044;-79
2022/03/22 05:00:29;;;;;;;50.42;32.40;;;5.30;99.90;;;;;;6243181;23;20077;-79
2022/03/22 05:02:55;;;;;;;45.92;30.10;;;5.00;99.90;;;;;;6243460;23;20012;-79
2022/03/22 05:06:25;;;;;;;50.67;30.58;;;5.00;99.90;;;;;;6243249;23;20008;-78
2022/03/22 05:08:06;;;;;;;53.25;31.30;;;4.90;99.90;;;;;;6243219;23;20024;-78
2022/03/22 05:10:35;;;;;;;50.80;30.65;;;4.90;99.90;;;;;;6242850;23;20016;-79
2022/03/22 05:13:02;;;;;;;49.78;31.13;;;4.80;99.90;;;;;;6242657;23;20062;-79
2022/03/22 05:15:28;;;;;;;52.90;32.70;;;4.80;99.90;;;;;;6216129;23;20020;-79
2022/03/22 05:17:56;;;;;;;47.33;29.67;;;4.70;99.90;;;;;;6215234;23;20023;-79
2022/03/22 05:20:21;;;;;;;47.30;31.23;;;4.60;99.90;;;;;;6243244;23;20028;-79
2022/03/22 05:22:48;;;;;;;45.22;28.52;;;4.60;99.90;;;;;;6243155;23;20015;-78
2022/03/22 05:25:14;;;;;;;47.28;31.08;;;4.50;99.90;;;;;;6243098;23;20074;-79
2022/03/22 05:27:40;;;;;;;47.95;29.38;;;4.50;99.90;;;;;;6242613;23;20028;-80
2022/03/22 05:30:06;;;;;;;39.65;25.48;;;4.50;99.90;;;;;;6215348;23;20020;-78
2022/03/22 05:32:32;;;;;;;41.03;27.27;;;4.40;99.90;;;;;;6242510;23;20390;-79
2022/03/22 05:34:58;;;;;;;50.92;29.25;;;4.40;99.90;;;;;;6242174;23;20445;-79
2022/03/22 05:37:24;;;;;;;49.60;29.95;;;4.40;99.90;;;;;;6242819;23;20039;-79
2022/03/22 05:39:50;;;;;;;48.17;31.13;;;4.40;99.90;;;;;;6242977;23;20008;-79
2022/03/22 05:42:16;;;;;;;56.40;32.72;;;4.40;99.90;;;;;;6242966;23;20569;-79
2022/03/22 05:44:43;;;;;;;47.20;31.17;;;4.50;99.90;;;;;;6242511;23;20062;-79
2022/03/22 05:47:10;;;;;;;53.08;32.47;;;4.50;99.90;;;;;;6242790;22;20019;-79
2022/03/22 05:49:36;;;;;;;49.92;31.55;;;4.50;99.90;;;;;;6243223;23;20341;-79
2022/03/22 05:52:05;;;;;;;52.08;30.65;;;4.90;99.90;;;;;;6243046;23;20334;-80
2022/03/22 05:54:31;;;;;;;58.88;32.75;;;4.60;99.90;;;;;;6242855;23;20338;-80
2022/03/22 05:56:56;;;;;;;51.00;31.83;;;4.60;99.90;;;;;;6242496;23;20027;-80
2022/03/22 05:59:22;;;;;;;49.97;31.85;;;4.70;99.90;;;;;;6242680;23;20019;-79
2022/03/22 06:01:48;;;;;;;49.22;30.58;;;4.70;99.90;;;;;;6215469;23;20020;-79
2022/03/22 06:04:13;;;;;;;49.08;30.83;;;4.70;99.90;;;;;;6242695;23;20090;-79
2022/03/22 06:06:40;;;;;;;47.63;29.58;;;4.70;99.90;;;;;;6242520;23;20066;-79
2022/03/22 06:09:07;;;;;;;50.40;31.48;;;4.60;99.90;;;;;;6242892;23;20394;-79
2022/03/22 06:11:35;;;;;;;48.30;32.05;;;4.50;99.90;;;;;;6242227;23;20024;-79
2022/03/22 06:14:05;;;;;;;50.65;31.85;;;4.50;99.90;;;;;;6215276;23;20020;-79
2022/03/22 06:16:31;;;;;;;46.50;28.90;;;4.60;99.90;;;;;;6242310;23;20020;-79
2022/03/22 06:18:58;;;;;;;49.28;29.85;;;4.50;99.90;;;;;;6242460;23;20143;-79
2022/03/22 06:21:24;;;;;;;47.03;28.90;;;4.50;99.90;;;;;;6242329;23;20020;-80
2022/03/22 06:23:50;;;;;;;48.72;31.63;;;4.50;99.90;;;;;;6242501;23;20092;-80
2022/03/22 06:26:16;;;;;;;43.67;28.75;;;4.50;99.90;;;;;;6242389;23;20693;-79
2022/03/22 06:28:43;;;;;;;48.30;31.35;;;4.50;99.90;;;;;;6242746;23;20091;-79
2022/03/22 06:31:09;;;;;;;42.60;28.17;;;4.50;99.90;;;;;;6242058;23;20023;-79
2022/03/22 06:33:35;;;;;;;52.97;30.23;;;4.50;99.90;;;;;;6242220;23;20020;-79
2022/03/22 06:36:01;;;;;;;50.97;30.83;;;4.50;99.90;;;;;;6242352;23;20020;-79
2022/03/22 06:38:28;;;;;;;54.05;31.65;;;4.60;99.90;;;;;;6242160;23;20051;-79
2022/03/22 06:40:53;;;;;;;48.03;30.23;;;4.60;99.90;;;;;;6242313;23;20384;-79
2022/03/22 06:43:20;;;;;;;43.13;28.17;;;4.60;99.90;;;;;;6242574;23;20027;-79
2022/03/22 06:45:47;;;;;;;52.40;30.77;;;4.70;99.90;;;;;;6242170;23;20074;-79
2022/03/22 06:48:15;;;;;;;48.50;29.50;;;4.70;99.90;;;;;;6241209;23;20023;-79
2022/03/22 06:50:42;;;;;;;47.88;28.80;;;4.70;99.90;;;;;;6242223;23;20048;-80
2022/03/22 06:53:08;;;;;;;58.03;32.38;;;4.80;99.90;;;;;;6241984;23;20027;-79
2022/03/22 06:55:35;;;;;;;59.03;31.50;;;4.90;99.90;;;;;;6241547;23;20472;-79
2022/03/22 06:58:01;;;;;;;47.45;30.10;;;5.00;99.90;;;;;;6241848;23;20398;-80
2022/03/22 07:00:28;;;;;;;48.80;31.48;;;5.00;99.90;;;;;;6241969;23;20436;-80
2022/03/22 07:02:55;;;;;;;49.50;31.52;;;5.10;99.90;;;;;;6241454;23;20023;-80
2022/03/22 07:05:21;;;;;;;43.97;29.25;;;5.20;99.90;;;;;;6241858;23;20143;-80
2022/03/22 07:07:47;;;;;;;45.67;29.08;;;5.30;99.90;;;;;;6241445;23;20051;-79
2022/03/22 07:10:16;;;;;;;46.78;29.55;;;5.30;99.90;;;;;;6241498;23;20020;-80
2022/03/22 07:12:54;;;;;;;53.65;29.95;;;5.40;99.90;;;;;;6241718;23;20024;-80
2022/03/22 07:15:26;;;;;;;45.15;30.20;;;5.50;99.90;;;;;;6241799;23;20052;-79
2022/03/22 07:17:52;;;;;;;49.40;32.20;;;5.60;99.90;;;;;;6241400;23;20349;-74
2022/03/22 07:20:19;;;;;;;51.75;30.77;;;5.70;99.90;;;;;;6241768;23;20016;-79
2022/03/22 07:22:46;;;;;;;49.75;31.35;;;5.80;99.90;;;;;;6241924;23;20088;-80
2022/03/22 07:25:12;;;;;;;51.60;31.08;;;5.90;99.90;;;;;;6241200;23;20453;-81
2022/03/22 07:27:38;;;;;;;51.45;31.55;;;6.10;99.90;;;;;;6241833;23;20027;-80
2022/03/22 07:30:04;;;;;;;49.13;31.50;;;6.20;99.90;;;;;;6241485;23;20016;-80
2022/03/22 07:32:30;;;;;;;45.15;30.38;;;6.30;99.90;;;;;;6240903;23;20453;-80
2022/03/22 07:34:59;;;;;;;52.50;31.55;;;6.40;99.90;;;;;;6241028;23;20008;-80
2022/03/22 07:37:25;;;;;;;45.60;29.65;;;6.50;99.90;;;;;;6241835;23;20090;-80
2022/03/22 07:39:51;;;;;;;49.30;31.40;;;6.60;99.90;;;;;;6241763;23;20350;-80
2022/03/22 07:42:17;;;;;;;47.47;31.13;;;6.80;99.90;;;;;;6241470;23;20437;-80
2022/03/22 07:44:42;;;;;;;49.67;31.42;;;6.90;99.90;;;;;;6241433;23;20091;-81
2022/03/22 07:47:08;;;;;;;48.97;30.23;;;7.00;99.90;;;;;;6214123;23;20026;-79
2022/03/22 07:55:03;;;;;;;48.25;31.30;;;7.40;99.90;;;;;;6214266;23;20035;-79
2022/03/22 07:57:28;;;;;;;47.97;30.02;;;7.60;99.90;;;;;;6241218;23;20146;-79
2022/03/22 07:59:54;;;;;;;46.05;29.40;;;7.80;99.90;;;;;;6241331;23;20024;-81
2022/03/22 08:02:20;;;;;;;49.08;30.00;;;7.90;99.90;;;;;;6213979;23;20016;-81
2022/03/22 08:04:45;;;;;;;53.90;30.80;;;8.10;99.90;;;;;;6241388;23;20369;-79
2022/03/22 08:07:11;;;;;;;53.00;29.10;;;8.20;99.90;;;;;;6241676;23;20016;-80
2022/03/22 08:09:37;;;;;;;48.05;29.40;;;8.40;99.90;;;;;;6241265;23;20016;-80
2022/03/22 08:12:03;;;;;;;51.92;29.15;;;8.60;99.90;;;;;;6241264;23;20023;-80
2022/03/22 08:14:28;;;;;;;46.00;28.42;;;8.80;99.90;;;;;;6241558;23;20012;-78
2022/03/22 08:16:54;;;;;;;41.42;27.45;;;9.00;99.90;;;;;;6241080;23;20748;-79
2022/03/22 08:19:20;;;;;;;48.38;28.90;;;9.30;99.90;;;;;;6241576;23;20019;-80
2022/03/22 08:21:48;;;;;;;53.25;29.65;;;9.50;99.90;;;;;;6242700;23;20027;-79
2022/03/22 08:24:14;;;;;;;45.75;27.48;;;9.60;99.90;;;;;;6243476;23;20019;-79
2022/03/22 08:26:40;;;;;;;42.20;28.92;;;9.90;99.90;;;;;;6243535;23;20016;-79
2022/03/22 08:29:06;;;;;;;41.15;27.75;;;10.10;99.90;;;;;;6243410;23;20577;-80
2022/03/22 08:31:32;;;;;;;38.83;27.02;;;10.20;99.90;;;;;;6243119;23;20118;-80
2022/03/22 08:33:58;;;;;;;39.47;27.33;;;10.40;99.90;;;;;;6243202;23;20048;-81
2022/03/22 08:36:23;;;;;;;38.20;27.05;;;10.60;99.90;;;;;;6242455;23;20012;-80
2022/03/22 08:38:49;;;;;;;42.65;26.40;;;10.80;99.90;;;;;;6242874;23;20062;-81
2022/03/22 08:41:15;;;;;;;42.50;26.40;;;11.00;99.90;;;;;;6215907;23;20028;-80
2022/03/22 08:43:42;;;;;;;43.83;26.20;;;11.10;99.90;;;;;;6243475;23;20170;-80
2022/03/22 08:46:08;;;;;;;41.25;26.02;;;11.30;99.90;;;;;;6243341;23;20018;-80
2022/03/22 08:48:34;;;;;;;42.05;26.67;;;11.50;99.90;;;;;;6215966;23;20087;-80
2022/03/22 08:51:01;;;;;;;41.47;25.90;;;11.70;99.90;;;;;;6242974;23;20071;-81
2022/03/22 08:53:27;;;;;;;39.45;24.85;;;11.90;99.90;;;;;;6242390;23;20457;-80
2022/03/22 08:55:53;;;;;;;40.20;25.00;;;12.10;99.90;;;;;;6242639;23;20016;-80
2022/03/22 08:58:19;;;;;;;39.90;23.92;;;12.30;99.90;;;;;;6243022;23;20048;-80
2022/03/22 09:00:48;;;;;;;42.90;23.80;;;12.40;99.90;;;;;;6242748;23;20365;-81
2022/03/22 09:03:14;;;;;;;40.80;24.50;;;12.50;99.90;;;;;;6242913;23;20379;-81
2022/03/22 09:08:25;;;;;;;41.58;25.60;;;13.00;99.90;;;;;;6242493;23;20055;-79
2022/03/22 09:10:51;;;;;;;41.50;24.10;;;13.20;99.90;;;;;;6242899;23;20089;-81
2022/03/22 09:13:17;;;;;;;38.10;24.45;;;13.30;99.90;;;;;;6242865;23;20023;-81
2022/03/22 09:15:44;;;;;;;36.30;24.40;;;13.50;99.90;;;;;;6214936;23;20095;-82
2022/03/22 09:18:13;;;;;;;34.70;23.40;;;13.80;99.90;;;;;;6243093;23;20016;-79
2022/03/22 09:20:40;;;;;;;35.55;24.73;;;14.10;99.90;;;;;;6242960;23;20008;-79
2022/03/22 09:23:08;;;;;;;36.08;24.40;;;14.30;99.90;;;;;;6242358;23;20009;-79
2022/03/22 09:25:35;;;;;;;35.67;24.35;;;14.50;99.90;;;;;;6242600;23;20020;-80
2022/03/22 09:28:01;;;;;;;38.33;23.67;;;14.70;99.90;;;;;;6214344;23;20016;-82
2022/03/22 09:30:27;;;;;;;37.63;24.45;;;15.00;99.90;;;;;;6243045;23;20059;-80
2022/03/22 09:32:53;;;;;;;34.45;23.77;;;15.20;99.90;;;;;;6215879;23;20562;-77
2022/03/22 09:35:19;;;;;;;39.70;23.27;;;15.50;99.90;;;;;;6242846;23;20091;-81
2022/03/22 09:37:47;;;;;;;34.75;22.13;;;15.60;99.90;;;;;;6242400;23;20020;-79
2022/03/22 09:40:15;;;;;;;38.78;23.33;;;15.70;99.90;;;;;;6242446;23;20111;-85
2022/03/22 09:42:45;;;;;;;34.10;22.73;;;15.90;99.90;;;;;;6242419;23;20488;-78
2022/03/22 09:45:17;;;;;;;35.63;22.95;;;16.00;99.90;;;;;;6191016;23;20048;-83
2022/03/22 09:47:45;;;;;;;39.72;22.90;;;16.20;99.90;;;;;;6242350;23;20020;-82
2022/03/22 09:50:15;;;;;;;33.85;23.42;;;16.50;99.90;;;;;;6242217;23;20017;-82
2022/03/22 09:52:41;;;;;;;41.60;23.20;;;16.80;99.90;;;;;;6242264;23;20013;-81
2022/03/22 09:55:10;;;;;;;40.92;22.95;;;17.00;99.90;;;;;;6241915;23;20102;-82
2022/03/22 09:57:36;;;;;;;37.72;22.80;;;17.10;99.90;;;;;;6242390;23;20338;-82
2022/03/22 10:00:04;;;;;;;35.63;22.73;;;17.20;99.90;;;;;;6242214;23;20106;-82
2022/03/22 10:02:32;;;;;;;39.97;23.48;;;17.40;99.90;;;;;;6242185;23;20012;-82
2022/03/22 10:04:58;;;;;;;35.05;22.10;;;17.60;99.20;;;;;;6215202;23;20126;-83
2022/03/22 10:07:25;;;;;;;38.72;22.33;;;17.90;99.70;;;;;;6242573;23;20012;-83
2022/03/22 10:09:58;;;;;;;33.30;21.15;;;18.00;99.30;;;;;;6241726;23;20087;-82
2022/03/22 10:12:37;;;;;;;35.95;22.27;;;18.20;98.30;;;;;;6214706;23;20089;-82
2022/03/22 10:15:12;;;;;;;36.83;21.10;;;18.40;97.20;;;;;;6241882;23;20020;-83
2022/03/22 10:17:38;;;;;;;34.50;21.75;;;18.60;97.70;;;;;;6242407;23;20027;-83
2022/03/22 10:20:06;;;;;;;33.05;21.65;;;18.70;97.60;;;;;;6242259;23;20027;-83
2022/03/22 10:22:33;;;;;;;34.42;22.45;;;18.90;97.30;;;;;;6215101;23;20016;-83
2022/03/22 10:25:02;;;;;;;30.88;21.27;;;19.10;96.90;;;;;;6241880;23;20023;-83
2022/03/22 10:27:30;;;;;;;31.83;20.33;;;19.30;96.10;;;;;;6241805;23;20026;-83
2022/03/22 10:29:57;;;;;;;35.03;21.40;;;19.50;95.80;;;;;;6215013;23;20522;-83
2022/03/22 10:32:33;;;;;;;35.28;20.92;;;19.70;95.90;;;;;;6242181;23;20074;-83
2022/03/22 10:35:22;;;;;;;31.88;21.65;;;19.90;95.30;;;;;;6241413;23;20051;-83
2022/03/22 10:37:52;;;;;;;29.20;20.52;;;20.00;94.60;;;;;;6214638;23;20514;-82
2022/03/22 10:40:44;;;;;;;33.78;20.92;;;20.30;94.70;;;;;;6241769;23;20073;-82
2022/03/22 10:43:26;;;;;;;35.35;20.25;;;20.40;93.30;;;;;;6241907;23;20397;-80
2022/03/22 10:46:01;;;;;;;33.70;19.70;;;20.50;92.50;;;;;;6242153;23;20016;-79
2022/03/22 10:48:34;;;;;;;29.00;19.48;;;20.40;92.80;;;;;;6214580;23;20027;-79
2022/03/22 10:51:01;;;;;;;31.52;20.48;;;20.70;93.00;;;;;;6241584;23;20016;-80
2022/03/22 10:53:29;;;;;;;32.72;19.15;;;20.70;91.70;;;;;;6242029;23;20056;-80
2022/03/22 10:55:57;;;;;;;33.00;19.25;;;20.90;91.30;;;;;;6241385;23;20078;-80
2022/03/22 10:58:28;;;;;;;29.08;19.55;;;21.00;91.40;;;;;;6242026;23;20020;-79
2022/03/22 11:00:55;;;;;;;33.88;18.50;;;21.10;91.30;;;;;;6242069;23;20022;-82
2022/03/22 11:03:23;;;;;;;31.60;18.83;;;21.30;91.30;;;;;;6241710;23;20020;-77
2022/03/22 11:05:54;;;;;;;27.98;18.70;;;21.40;90.50;;;;;;6214279;23;20377;-86
2022/03/22 11:08:24;;;;;;;28.65;19.58;;;21.40;87.60;;;;;;6242057;23;20027;-85
2022/03/22 11:10:51;;;;;;;28.40;19.63;;;21.60;89.50;;;;;;6241210;23;20115;-85
2022/03/22 11:13:17;;;;;;;34.80;19.85;;;21.50;87.90;;;;;;6241912;23;20338;-82
2022/03/22 11:15:47;;;;;;;34.38;20.13;;;21.50;88.20;;;;;;6214600;23;20035;-85
2022/03/22 11:18:15;;;;;;;34.03;20.95;;;21.60;86.10;;;;;;6214343;23;20102;-86
2022/03/22 11:20:52;;;;;;;59.80;22.35;;;21.70;85.60;;;;;;6214658;23;20020;-79
2022/03/22 11:23:23;;;;;;;32.80;19.70;;;22.00;84.90;;;;;;6241953;23;20027;-79
2022/03/22 11:25:49;;;;;;;30.65;21.48;;;22.00;84.40;;;;;;6241725;23;20054;-82
2022/03/22 11:28:21;;;;;;;34.03;20.52;;;22.10;84.00;;;;;;6214413;23;20020;-80
2022/03/22 11:30:48;;;;;;;32.17;19.95;;;22.00;82.90;;;;;;6241949;23;20047;-81
2022/03/22 11:36:15;;;;;;;33.15;21.90;;;22.30;84.50;;;;;;6242111;23;20031;-81
2022/03/22 11:38:52;;;;;;;37.05;20.25;;;22.50;83.20;;;;;;6242266;23;20099;-84
2022/03/22 11:44:06;;;;;;;;;;;22.70;79.90;;;;;;6214631;23;20020;-83
2022/03/22 11:46:32;;;;;;;29.45;19.33;;;22.80;79.10;;;;;;6214455;23;19920;-85
2022/03/22 11:49:10;;;;;;;29.02;19.23;;;22.90;79.30;;;;;;6214108;23;20086;-83
2022/03/22 11:51:47;;;;;;;30.77;19.77;;;22.90;79.30;;;;;;6214997;23;20048;-85
2022/03/22 11:54:13;;;;;;;32.15;19.88;;;23.00;76.90;;;;;;6215166;23;20028;-84
2022/03/22 11:56:47;;;;;;;29.48;18.85;;;23.10;76.20;;;;;;6243700;23;20446;-84
2022/03/22 11:59:18;;;;;;;29.75;19.23;;;23.00;75.10;;;;;;6231212;23;20016;-85
2022/03/22 12:02:01;;;;;;;25.52;18.48;;;23.00;74.70;;;;;;6243628;23;20070;-85
2022/03/22 12:04:37;;;;;;;30.27;19.42;;;23.10;75.70;;;;;;6216590;23;20020;-84
2022/03/22 12:07:03;;;;;;;30.92;17.23;;;23.00;72.90;;;;;;6243491;23;20024;-84
2022/03/22 12:09:29;;;;;;;32.65;17.58;;;23.20;74.90;;;;;;6243604;23;20020;-82
2022/03/22 12:11:56;;;;;;;30.98;18.73;;;23.40;75.20;;;;;;6216409;23;20123;-84
2022/03/22 12:14:30;;;;;;;33.53;18.40;;;23.40;73.00;;;;;;6243111;23;20024;-84
2022/03/22 12:16:59;;;;;;;30.50;16.93;;;23.20;73.30;;;;;;6191448;23;20058;-84
2022/03/22 12:19:26;;;;;;;29.00;18.52;;;23.50;72.50;;;;;;6216146;23;20020;-83
2022/03/22 12:21:55;;;;;;;26.95;18.83;;;23.50;73.00;;;;;;6216157;23;20390;-85
2022/03/22 12:24:23;;;;;;;27.58;18.52;;;23.60;70.70;;;;;;6215968;23;20016;-83
2022/03/22 12:26:50;;;;;;;28.50;19.02;;;23.60;72.70;;;;;;6243548;23;20016;-84
2022/03/22 12:29:17;;;;;;;28.45;19.35;;;23.50;70.90;;;;;;6243149;23;20062;-86
2022/03/22 12:31:51;;;;;;;30.52;19.00;;;23.60;71.30;;;;;;6216786;23;20023;-83
2022/03/22 12:34:17;;;;;;;31.50;19.17;;;23.40;70.00;;;;;;6243419;23;20384;-85
2022/03/22 12:36:43;;;;;;;31.23;18.75;;;23.60;69.40;;;;;;6243309;23;20028;-83
2022/03/22 12:39:09;;;;;;;28.42;17.63;;;23.60;69.70;;;;;;6243309;23;20342;-82
2022/03/22 12:41:34;;;;;;;29.92;19.55;;;23.70;69.60;;;;;;6243447;23;20020;-84
2022/03/22 12:44:01;;;;;;;29.95;19.60;;;23.80;68.90;;;;;;6242920;23;20091;-84
2022/03/22 12:46:28;;;;;;;33.15;19.02;;;23.70;67.10;;;;;;6215903;23;20031;-84
2022/03/22 12:48:55;;;;;;;30.65;18.77;;;23.70;69.30;;;;;;6215730;23;20342;-83
2022/03/22 12:51:23;;;;;;;28.45;18.52;;;24.00;69.40;;;;;;6243254;23;20020;-83
2022/03/22 12:53:49;;;;;;;29.15;18.48;;;23.90;67.00;;;;;;6215874;23;20016;-83
2022/03/22 12:56:16;;;;;;;29.70;17.42;;;24.00;66.50;;;;;;6243244;23;20099;-83
2022/03/22 12:58:42;;;;;;;30.40;18.75;;;24.20;67.20;;;;;;6242767;23;20028;-83
2022/03/22 13:01:07;;;;;;;26.92;17.67;;;24.40;66.20;;;;;;6215324;23;20019;-83
2022/03/22 13:03:36;;;;;;;29.98;17.90;;;24.30;67.40;;;;;;6216120;23;20061;-81
2022/03/22 13:06:02;;;;;;;29.27;17.30;;;24.50;64.00;;;;;;6242607;23;20073;-81
2022/03/22 13:11:32;;;;;;;26.88;17.27;;;24.80;67.50;;;;;;6242661;23;20491;-83
2022/03/22 13:16:51;;;;;;;24.52;15.30;;;24.60;66.10;;;;;;6242672;23;20024;-83
2022/03/22 13:19:17;;;;;;;26.80;15.75;;;24.40;64.70;;;;;;6242858;23;20051;-83